sensor_id;sensor_type;location;lat;lon;timestamp;temperature;humidity
30678;DHT22;17437;47.188;8.896;2022-12-29T00:02:06;2.60;99.90
30678;DHT22;17437;47.188;8.896;2022-12-29T00:04:38;2.70;99.90
30678;DHT22;17437;47.188;8.896;2022-12-29T00:07:09;2.80;99.90
30678;DHT22;17437;47.188;8.896;2022-12-29T00:09:41;2.90;99.90
30678;DHT22;17437;47.188;8.896;2022-12-29T00:12:12;3.00;99.90
30678;DHT22;17437;47.188;8.896;2022-12-29T00:14:44;2.90;99.90
30678;DHT22;17437;47.188;8.896;2022-12-29T00:17:33;2.90;99.90
30678;DHT22;17437;47.188;8.896;2022-12-29T00:20:06;2.90;99.90
30678;DHT22;17437;47.188;8.896;2022-12-29T00:22:56;3.00;99.90
30678;DHT22;17437;47.188;8.896;2022-12-29T00:25:49;3.00;99.90
30678;DHT22;17437;47.188;8.896;2022-12-29T00:28:38;3.00;99.90
30678;DHT22;17437;47.188;8.896;2022-12-29T00:31:27;3.40;99.90
30678;DHT22;17437;47.188;8.896;2022-12-29T00:34:16;3.60;99.90
30678;DHT22;17437;47.188;8.896;2022-12-29T00:37:05;3.50;99.90
30678;DHT22;17437;47.188;8.896;2022-12-29T00:39:36;3.40;99.90
30678;DHT22;17437;47.188;8.896;2022-12-29T00:42:25;3.50;99.90
30678;DHT22;17437;47.188;8.896;2022-12-29T00:45:15;3.60;99.90
30678;DHT22;17437;47.188;8.896;2022-12-29T00:47:47;3.80;99.90
30678;DHT22;17437;47.188;8.896;2022-12-29T00:50:18;3.90;99.90
30678;DHT22;17437;47.188;8.896;2022-12-29T00:52:50;4.00;99.90
30678;DHT22;17437;47.188;8.896;2022-12-29T00:55:21;4.00;99.90
30678;DHT22;17437;47.188;8.896;2022-12-29T00:57:53;3.90;99.90
30678;DHT22;17437;47.188;8.896;2022-12-29T01:00:24;3.80;99.90
30678;DHT22;17437;47.188;8.896;2022-12-29T01:02:56;3.80;99.90
30678;DHT22;17437;47.188;8.896;2022-12-29T01:05:27;3.70;99.90
30678;DHT22;17437;47.188;8.896;2022-12-29T01:07:59;3.70;99.90
30678;DHT22;17437;47.188;8.896;2022-12-29T01:10:30;3.70;99.90
30678;DHT22;17437;47.188;8.896;2022-12-29T01:13:03;3.70;99.90
30678;DHT22;17437;47.188;8.896;2022-12-29T01:15:34;3.80;99.90
30678;DHT22;17437;47.188;8.896;2022-12-29T01:18:06;3.80;99.90
30678;DHT22;17437;47.188;8.896;2022-12-29T01:20:38;3.70;99.90
30678;DHT22;17437;47.188;8.896;2022-12-29T01:23:09;3.70;99.90
30678;DHT22;17437;47.188;8.896;2022-12-29T01:25:41;3.70;99.90
30678;DHT22;17437;47.188;8.896;2022-12-29T01:28:12;3.70;99.90
30678;DHT22;17437;47.188;8.896;2022-12-29T01:30:44;3.80;99.90
30678;DHT22;17437;47.188;8.896;2022-12-29T01:33:15;3.90;99.90
30678;DHT22;17437;47.188;8.896;2022-12-29T01:35:47;4.00;99.90
30678;DHT22;17437;47.188;8.896;2022-12-29T01:38:18;4.10;99.90
30678;DHT22;17437;47.188;8.896;2022-12-29T01:40:50;4.30;99.90
30678;DHT22;17437;47.188;8.896;2022-12-29T01:43:21;4.40;99.90
30678;DHT22;17437;47.188;8.896;2022-12-29T01:45:54;4.40;99.90
30678;DHT22;17437;47.188;8.896;2022-12-29T01:48:26;4.40;99.90
30678;DHT22;17437;47.188;8.896;2022-12-29T01:50:57;4.40;99.90
30678;DHT22;17437;47.188;8.896;2022-12-29T01:53:31;4.50;99.90
30678;DHT22;17437;47.188;8.896;2022-12-29T01:56:07;4.60;99.90
30678;DHT22;17437;47.188;8.896;2022-12-29T01:58:41;4.50;99.90
30678;DHT22;17437;47.188;8.896;2022-12-29T02:01:14;4.50;99.90
30678;DHT22;17437;47.188;8.896;2022-12-29T02:03:48;4.60;99.90
30678;DHT22;17437;47.188;8.896;2022-12-29T02:06:22;4.40;99.90
30678;DHT22;17437;47.188;8.896;2022-12-29T02:08:57;4.30;99.90
30678;DHT22;17437;47.188;8.896;2022-12-29T02:11:29;4.10;99.90
30678;DHT22;17437;47.188;8.896;2022-12-29T02:14:07;4.00;99.90
30678;DHT22;17437;47.188;8.896;2022-12-29T02:16:49;4.00;99.90
30678;DHT22;17437;47.188;8.896;2022-12-29T02:19:49;3.90;99.90
30678;DHT22;17437;47.188;8.896;2022-12-29T02:22:24;3.80;99.90
30678;DHT22;17437;47.188;8.896;2022-12-29T02:31:04;3.70;99.90
30678;DHT22;17437;47.188;8.896;2022-12-29T02:33:44;3.70;99.90
30678;DHT22;17437;47.188;8.896;2022-12-29T02:36:20;3.80;99.90
30678;DHT22;17437;47.188;8.896;2022-12-29T02:38:58;3.80;99.90
30678;DHT22;17437;47.188;8.896;2022-12-29T02:41:33;3.90;99.90
30678;DHT22;17437;47.188;8.896;2022-12-29T02:44:09;3.90;99.90
30678;DHT22;17437;47.188;8.896;2022-12-29T02:46:44;3.80;99.90
30678;DHT22;17437;47.188;8.896;2022-12-29T02:49:19;3.80;99.90
30678;DHT22;17437;47.188;8.896;2022-12-29T02:51:54;3.80;99.90
30678;DHT22;17437;47.188;8.896;2022-12-29T02:54:28;3.80;99.90
30678;DHT22;17437;47.188;8.896;2022-12-29T02:57:15;3.80;99.90
30678;DHT22;17437;47.188;8.896;2022-12-29T02:59:49;3.70;99.90
30678;DHT22;17437;47.188;8.896;2022-12-29T03:02:39;3.80;99.90
30678;DHT22;17437;47.188;8.896;2022-12-29T03:05:36;4.00;99.90
30678;DHT22;17437;47.188;8.896;2022-12-29T03:08:13;4.20;99.90
30678;DHT22;17437;47.188;8.896;2022-12-29T03:10:46;4.20;99.90
30678;DHT22;17437;47.188;8.896;2022-12-29T03:13:22;4.20;99.90
30678;DHT22;17437;47.188;8.896;2022-12-29T03:16:17;4.10;99.90
30678;DHT22;17437;47.188;8.896;2022-12-29T03:18:52;4.10;99.90
30678;DHT22;17437;47.188;8.896;2022-12-29T03:21:29;4.10;99.90
30678;DHT22;17437;47.188;8.896;2022-12-29T03:24:22;4.10;99.90
30678;DHT22;17437;47.188;8.896;2022-12-29T03:26:57;4.00;99.90
30678;DHT22;17437;47.188;8.896;2022-12-29T03:29:29;3.90;99.90
30678;DHT22;17437;47.188;8.896;2022-12-29T03:32:03;3.90;99.90
30678;DHT22;17437;47.188;8.896;2022-12-29T03:34:37;3.90;99.90
30678;DHT22;17437;47.188;8.896;2022-12-29T03:37:12;3.90;99.90
30678;DHT22;17437;47.188;8.896;2022-12-29T03:39:44;3.90;99.90
30678;DHT22;17437;47.188;8.896;2022-12-29T03:42:19;3.90;99.90
30678;DHT22;17437;47.188;8.896;2022-12-29T03:44:53;4.00;99.90
30678;DHT22;17437;47.188;8.896;2022-12-29T03:47:26;4.10;99.90
30678;DHT22;17437;47.188;8.896;2022-12-29T03:49:57;4.20;99.90
30678;DHT22;17437;47.188;8.896;2022-12-29T03:52:29;4.20;99.90
30678;DHT22;17437;47.188;8.896;2022-12-29T03:55:00;4.40;99.90
30678;DHT22;17437;47.188;8.896;2022-12-29T03:57:32;4.40;99.90
30678;DHT22;17437;47.188;8.896;2022-12-29T04:00:05;4.40;99.90
30678;DHT22;17437;47.188;8.896;2022-12-29T04:02:36;4.40;99.90
30678;DHT22;17437;47.188;8.896;2022-12-29T04:05:09;4.40;99.90
30678;DHT22;17437;47.188;8.896;2022-12-29T04:07:40;4.40;99.90
30678;DHT22;17437;47.188;8.896;2022-12-29T04:10:11;4.40;99.90
30678;DHT22;17437;47.188;8.896;2022-12-29T04:12:43;4.50;99.90
30678;DHT22;17437;47.188;8.896;2022-12-29T04:15:16;4.40;99.90
30678;DHT22;17437;47.188;8.896;2022-12-29T04:17:47;4.40;99.90
30678;DHT22;17437;47.188;8.896;2022-12-29T04:20:19;4.40;99.90
30678;DHT22;17437;47.188;8.896;2022-12-29T04:23:08;4.40;99.90
30678;DHT22;17437;47.188;8.896;2022-12-29T04:25:40;4.40;99.90
30678;DHT22;17437;47.188;8.896;2022-12-29T04:28:11;4.30;99.90
30678;DHT22;17437;47.188;8.896;2022-12-29T04:30:45;4.30;99.90
30678;DHT22;17437;47.188;8.896;2022-12-29T04:33:17;4.30;99.90
30678;DHT22;17437;47.188;8.896;2022-12-29T04:35:48;4.30;99.90
30678;DHT22;17437;47.188;8.896;2022-12-29T04:38:21;4.40;99.90
30678;DHT22;17437;47.188;8.896;2022-12-29T04:40:53;4.40;99.90
30678;DHT22;17437;47.188;8.896;2022-12-29T04:43:24;4.40;99.90
30678;DHT22;17437;47.188;8.896;2022-12-29T04:45:56;4.40;99.90
30678;DHT22;17437;47.188;8.896;2022-12-29T04:48:27;4.40;99.90
30678;DHT22;17437;47.188;8.896;2022-12-29T04:51:00;4.50;99.90
30678;DHT22;17437;47.188;8.896;2022-12-29T04:53:31;4.60;99.90
30678;DHT22;17437;47.188;8.896;2022-12-29T04:56:03;4.60;99.90
30678;DHT22;17437;47.188;8.896;2022-12-29T04:58:34;4.70;99.90
30678;DHT22;17437;47.188;8.896;2022-12-29T05:01:06;4.70;99.90
30678;DHT22;17437;47.188;8.896;2022-12-29T05:03:37;4.70;99.90
30678;DHT22;17437;47.188;8.896;2022-12-29T05:06:09;4.80;99.90
30678;DHT22;17437;47.188;8.896;2022-12-29T05:08:40;4.80;99.90
30678;DHT22;17437;47.188;8.896;2022-12-29T05:11:12;4.80;99.90
30678;DHT22;17437;47.188;8.896;2022-12-29T05:13:45;4.70;99.90
30678;DHT22;17437;47.188;8.896;2022-12-29T05:16:16;4.70;99.90
30678;DHT22;17437;47.188;8.896;2022-12-29T05:18:48;4.70;99.90
30678;DHT22;17437;47.188;8.896;2022-12-29T05:21:19;4.80;99.90
30678;DHT22;17437;47.188;8.896;2022-12-29T05:23:51;4.80;99.90
30678;DHT22;17437;47.188;8.896;2022-12-29T05:26:22;4.90;99.90
30678;DHT22;17437;47.188;8.896;2022-12-29T05:28:53;5.00;99.90
30678;DHT22;17437;47.188;8.896;2022-12-29T05:31:25;5.10;99.90
30678;DHT22;17437;47.188;8.896;2022-12-29T05:33:56;5.10;99.90
30678;DHT22;17437;47.188;8.896;2022-12-29T05:36:28;5.20;99.90
30678;DHT22;17437;47.188;8.896;2022-12-29T05:39:01;5.20;99.90
30678;DHT22;17437;47.188;8.896;2022-12-29T05:41:32;5.10;99.90
30678;DHT22;17437;47.188;8.896;2022-12-29T05:44:04;5.00;99.90
30678;DHT22;17437;47.188;8.896;2022-12-29T05:46:35;4.80;99.90
30678;DHT22;17437;47.188;8.896;2022-12-29T05:49:07;4.80;99.90
30678;DHT22;17437;47.188;8.896;2022-12-29T05:51:39;4.70;99.90
30678;DHT22;17437;47.188;8.896;2022-12-29T05:54:10;4.60;99.90
30678;DHT22;17437;47.188;8.896;2022-12-29T05:56:41;4.50;99.90
30678;DHT22;17437;47.188;8.896;2022-12-29T05:59:13;4.40;99.90
30678;DHT22;17437;47.188;8.896;2022-12-29T06:01:44;4.40;99.90
30678;DHT22;17437;47.188;8.896;2022-12-29T06:04:16;4.40;99.90
30678;DHT22;17437;47.188;8.896;2022-12-29T06:06:48;4.40;99.90
30678;DHT22;17437;47.188;8.896;2022-12-29T06:09:19;4.40;99.90
30678;DHT22;17437;47.188;8.896;2022-12-29T06:11:51;4.40;99.90
30678;DHT22;17437;47.188;8.896;2022-12-29T06:14:22;4.40;99.90
30678;DHT22;17437;47.188;8.896;2022-12-29T06:16:54;4.40;99.90
30678;DHT22;17437;47.188;8.896;2022-12-29T06:19:25;4.50;99.90
30678;DHT22;17437;47.188;8.896;2022-12-29T06:21:57;4.50;99.90
30678;DHT22;17437;47.188;8.896;2022-12-29T06:24:28;4.60;99.90
30678;DHT22;17437;47.188;8.896;2022-12-29T06:27:00;4.70;99.90
30678;DHT22;17437;47.188;8.896;2022-12-29T06:29:31;4.70;99.90
30678;DHT22;17437;47.188;8.896;2022-12-29T06:32:03;4.80;99.90
30678;DHT22;17437;47.188;8.896;2022-12-29T06:34:35;4.80;99.90
30678;DHT22;17437;47.188;8.896;2022-12-29T06:37:06;4.80;99.90
30678;DHT22;17437;47.188;8.896;2022-12-29T06:39:37;4.90;99.90
30678;DHT22;17437;47.188;8.896;2022-12-29T06:42:10;4.80;99.90
30678;DHT22;17437;47.188;8.896;2022-12-29T06:44:42;4.90;99.90
30678;DHT22;17437;47.188;8.896;2022-12-29T06:47:13;4.90;99.90
30678;DHT22;17437;47.188;8.896;2022-12-29T06:49:45;5.00;99.90
30678;DHT22;17437;47.188;8.896;2022-12-29T06:52:16;5.00;99.90
30678;DHT22;17437;47.188;8.896;2022-12-29T06:54:48;4.90;99.90
30678;DHT22;17437;47.188;8.896;2022-12-29T06:57:19;4.80;99.90
30678;DHT22;17437;47.188;8.896;2022-12-29T06:59:51;4.80;99.90
30678;DHT22;17437;47.188;8.896;2022-12-29T07:02:25;4.80;99.90
30678;DHT22;17437;47.188;8.896;2022-12-29T07:04:56;4.80;99.90
30678;DHT22;17437;47.188;8.896;2022-12-29T07:07:28;4.80;99.90
30678;DHT22;17437;47.188;8.896;2022-12-29T07:09:59;4.80;99.90
30678;DHT22;17437;47.188;8.896;2022-12-29T07:12:31;4.90;99.90
30678;DHT22;17437;47.188;8.896;2022-12-29T07:15:03;4.90;99.90
30678;DHT22;17437;47.188;8.896;2022-12-29T07:17:35;4.90;99.90
30678;DHT22;17437;47.188;8.896;2022-12-29T07:20:09;4.90;99.90
30678;DHT22;17437;47.188;8.896;2022-12-29T07:22:40;4.80;99.90
30678;DHT22;17437;47.188;8.896;2022-12-29T07:25:12;4.80;99.90
30678;DHT22;17437;47.188;8.896;2022-12-29T07:27:43;4.70;99.90
30678;DHT22;17437;47.188;8.896;2022-12-29T07:30:15;4.70;99.90
30678;DHT22;17437;47.188;8.896;2022-12-29T07:32:46;4.70;99.90
30678;DHT22;17437;47.188;8.896;2022-12-29T07:35:18;4.70;99.90
30678;DHT22;17437;47.188;8.896;2022-12-29T07:37:49;4.90;99.90
30678;DHT22;17437;47.188;8.896;2022-12-29T07:40:21;4.90;99.90
30678;DHT22;17437;47.188;8.896;2022-12-29T07:42:52;5.00;99.90
30678;DHT22;17437;47.188;8.896;2022-12-29T07:45:24;5.10;99.90
30678;DHT22;17437;47.188;8.896;2022-12-29T07:47:56;5.10;99.90
30678;DHT22;17437;47.188;8.896;2022-12-29T07:50:29;5.20;99.90
30678;DHT22;17437;47.188;8.896;2022-12-29T07:53:04;5.20;99.90
30678;DHT22;17437;47.188;8.896;2022-12-29T07:55:36;5.30;99.90
30678;DHT22;17437;47.188;8.896;2022-12-29T07:58:08;5.30;99.90
30678;DHT22;17437;47.188;8.896;2022-12-29T08:00:40;5.30;99.90
30678;DHT22;17437;47.188;8.896;2022-12-29T08:03:12;5.30;99.90
30678;DHT22;17437;47.188;8.896;2022-12-29T08:05:43;5.20;99.90
30678;DHT22;17437;47.188;8.896;2022-12-29T08:08:15;5.30;99.90
30678;DHT22;17437;47.188;8.896;2022-12-29T08:10:46;5.40;99.90
30678;DHT22;17437;47.188;8.896;2022-12-29T08:13:18;5.50;99.90
30678;DHT22;17437;47.188;8.896;2022-12-29T08:15:49;5.60;99.90
30678;DHT22;17437;47.188;8.896;2022-12-29T08:18:20;5.80;99.90
30678;DHT22;17437;47.188;8.896;2022-12-29T08:20:53;5.90;99.90
30678;DHT22;17437;47.188;8.896;2022-12-29T08:23:25;6.00;99.90
30678;DHT22;17437;47.188;8.896;2022-12-29T08:25:58;6.30;99.90
30678;DHT22;17437;47.188;8.896;2022-12-29T08:28:30;6.50;99.90
30678;DHT22;17437;47.188;8.896;2022-12-29T08:31:02;6.60;99.90
30678;DHT22;17437;47.188;8.896;2022-12-29T08:33:34;6.70;99.90
30678;DHT22;17437;47.188;8.896;2022-12-29T08:36:08;6.80;99.90
30678;DHT22;17437;47.188;8.896;2022-12-29T08:38:40;6.90;99.90
30678;DHT22;17437;47.188;8.896;2022-12-29T08:41:11;6.90;99.90
30678;DHT22;17437;47.188;8.896;2022-12-29T08:43:46;7.10;99.90
30678;DHT22;17437;47.188;8.896;2022-12-29T08:46:18;7.40;99.90
30678;DHT22;17437;47.188;8.896;2022-12-29T08:48:50;7.50;99.90
30678;DHT22;17437;47.188;8.896;2022-12-29T08:51:21;7.60;99.90
30678;DHT22;17437;47.188;8.896;2022-12-29T08:53:54;7.60;99.90
30678;DHT22;17437;47.188;8.896;2022-12-29T08:56:26;7.70;99.90
30678;DHT22;17437;47.188;8.896;2022-12-29T08:58:58;7.80;99.90
30678;DHT22;17437;47.188;8.896;2022-12-29T09:01:29;7.90;99.90
30678;DHT22;17437;47.188;8.896;2022-12-29T09:04:01;7.90;99.90
30678;DHT22;17437;47.188;8.896;2022-12-29T09:06:34;8.10;99.90
30678;DHT22;17437;47.188;8.896;2022-12-29T09:09:08;8.10;99.90
30678;DHT22;17437;47.188;8.896;2022-12-29T09:11:40;8.40;99.90
30678;DHT22;17437;47.188;8.896;2022-12-29T09:14:13;8.40;99.90
30678;DHT22;17437;47.188;8.896;2022-12-29T09:16:44;8.50;99.90
30678;DHT22;17437;47.188;8.896;2022-12-29T09:19:34;8.50;99.90
30678;DHT22;17437;47.188;8.896;2022-12-29T09:22:06;8.60;99.90
30678;DHT22;17437;47.188;8.896;2022-12-29T09:24:38;8.70;99.90
30678;DHT22;17437;47.188;8.896;2022-12-29T09:27:10;8.70;99.90
30678;DHT22;17437;47.188;8.896;2022-12-29T09:29:41;8.70;99.90
30678;DHT22;17437;47.188;8.896;2022-12-29T09:32:13;8.70;99.90
30678;DHT22;17437;47.188;8.896;2022-12-29T09:34:47;8.70;99.90
30678;DHT22;17437;47.188;8.896;2022-12-29T09:37:18;8.60;99.90
30678;DHT22;17437;47.188;8.896;2022-12-29T09:39:50;8.50;99.90
30678;DHT22;17437;47.188;8.896;2022-12-29T09:42:27;8.30;99.90
30678;DHT22;17437;47.188;8.896;2022-12-29T09:45:07;8.20;99.90
30678;DHT22;17437;47.188;8.896;2022-12-29T09:47:39;8.10;99.90
30678;DHT22;17437;47.188;8.896;2022-12-29T09:50:16;8.20;99.90
30678;DHT22;17437;47.188;8.896;2022-12-29T09:52:50;8.40;99.90
30678;DHT22;17437;47.188;8.896;2022-12-29T09:55:33;8.60;99.90
30678;DHT22;17437;47.188;8.896;2022-12-29T09:57:58;8.70;99.90
30678;DHT22;17437;47.188;8.896;2022-12-29T10:00:34;8.90;99.90
30678;DHT22;17437;47.188;8.896;2022-12-29T10:03:12;9.00;99.90
30678;DHT22;17437;47.188;8.896;2022-12-29T10:08:32;9.20;99.90
30678;DHT22;17437;47.188;8.896;2022-12-29T10:11:07;9.10;99.90
30678;DHT22;17437;47.188;8.896;2022-12-29T10:13:47;9.10;99.90
30678;DHT22;17437;47.188;8.896;2022-12-29T10:16:18;9.20;99.90
30678;DHT22;17437;47.188;8.896;2022-12-29T10:19:03;9.20;99.90
30678;DHT22;17437;47.188;8.896;2022-12-29T10:21:41;9.40;99.90
30678;DHT22;17437;47.188;8.896;2022-12-29T10:24:13;9.60;99.90
30678;DHT22;17437;47.188;8.896;2022-12-29T10:26:46;9.80;99.90
30678;DHT22;17437;47.188;8.896;2022-12-29T10:29:21;9.90;99.90
30678;DHT22;17437;47.188;8.896;2022-12-29T10:31:58;9.90;99.90
30678;DHT22;17437;47.188;8.896;2022-12-29T10:34:33;10.00;99.90
30678;DHT22;17437;47.188;8.896;2022-12-29T10:37:09;10.10;99.90
30678;DHT22;17437;47.188;8.896;2022-12-29T10:39:44;10.10;99.90
30678;DHT22;17437;47.188;8.896;2022-12-29T10:42:19;10.10;99.90
30678;DHT22;17437;47.188;8.896;2022-12-29T10:44:51;10.20;99.90
30678;DHT22;17437;47.188;8.896;2022-12-29T10:47:26;10.20;99.90
30678;DHT22;17437;47.188;8.896;2022-12-29T10:49:57;10.30;99.90
30678;DHT22;17437;47.188;8.896;2022-12-29T10:52:31;10.40;99.90
30678;DHT22;17437;47.188;8.896;2022-12-29T10:55:08;10.50;99.90
30678;DHT22;17437;47.188;8.896;2022-12-29T10:57:42;10.70;99.90
30678;DHT22;17437;47.188;8.896;2022-12-29T11:00:18;10.80;99.90
30678;DHT22;17437;47.188;8.896;2022-12-29T11:03:08;10.80;99.90
30678;DHT22;17437;47.188;8.896;2022-12-29T11:05:43;10.90;99.90
30678;DHT22;17437;47.188;8.896;2022-12-29T11:08:18;10.90;99.90
30678;DHT22;17437;47.188;8.896;2022-12-29T11:10:59;10.90;99.90
30678;DHT22;17437;47.188;8.896;2022-12-29T11:13:33;10.90;99.90
30678;DHT22;17437;47.188;8.896;2022-12-29T11:16:07;10.90;99.90
30678;DHT22;17437;47.188;8.896;2022-12-29T11:18:39;11.00;99.90
30678;DHT22;17437;47.188;8.896;2022-12-29T11:21:35;11.00;99.90
30678;DHT22;17437;47.188;8.896;2022-12-29T11:24:22;11.00;99.90
30678;DHT22;17437;47.188;8.896;2022-12-29T11:26:55;11.00;99.90
30678;DHT22;17437;47.188;8.896;2022-12-29T11:29:29;11.00;99.90
30678;DHT22;17437;47.188;8.896;2022-12-29T11:32:11;11.10;99.90
30678;DHT22;17437;47.188;8.896;2022-12-29T11:34:40;11.10;99.90
30678;DHT22;17437;47.188;8.896;2022-12-29T11:37:14;11.10;99.90
30678;DHT22;17437;47.188;8.896;2022-12-29T11:39:50;11.00;99.90
30678;DHT22;17437;47.188;8.896;2022-12-29T11:42:28;11.00;99.90
30678;DHT22;17437;47.188;8.896;2022-12-29T11:44:56;10.90;99.90
30678;DHT22;17437;47.188;8.896;2022-12-29T11:47:30;10.90;99.90
30678;DHT22;17437;47.188;8.896;2022-12-29T11:50:05;10.80;99.90
30678;DHT22;17437;47.188;8.896;2022-12-29T11:52:38;10.80;99.90
30678;DHT22;17437;47.188;8.896;2022-12-29T11:55:17;10.80;99.90
30678;DHT22;17437;47.188;8.896;2022-12-29T11:57:50;10.90;99.90
30678;DHT22;17437;47.188;8.896;2022-12-29T12:00:24;10.90;99.90
30678;DHT22;17437;47.188;8.896;2022-12-29T12:03:00;11.00;99.90
30678;DHT22;17437;47.188;8.896;2022-12-29T12:05:37;11.00;99.90
30678;DHT22;17437;47.188;8.896;2022-12-29T12:08:14;11.00;99.90
30678;DHT22;17437;47.188;8.896;2022-12-29T12:10:50;11.00;99.90
30678;DHT22;17437;47.188;8.896;2022-12-29T12:13:27;10.80;99.90
30678;DHT22;17437;47.188;8.896;2022-12-29T12:16:02;10.80;99.90
30678;DHT22;17437;47.188;8.896;2022-12-29T12:18:41;10.70;99.90
30678;DHT22;17437;47.188;8.896;2022-12-29T12:21:27;10.60;99.90
30678;DHT22;17437;47.188;8.896;2022-12-29T12:27:04;10.70;99.90
30678;DHT22;17437;47.188;8.896;2022-12-29T12:29:38;10.70;99.90
30678;DHT22;17437;47.188;8.896;2022-12-29T12:32:17;10.70;99.90
30678;DHT22;17437;47.188;8.896;2022-12-29T12:34:50;10.70;99.90
30678;DHT22;17437;47.188;8.896;2022-12-29T12:37:43;10.70;99.90
30678;DHT22;17437;47.188;8.896;2022-12-29T12:40:38;10.70;99.90
30678;DHT22;17437;47.188;8.896;2022-12-29T12:43:25;10.60;99.90
30678;DHT22;17437;47.188;8.896;2022-12-29T12:46:00;10.50;99.90
30678;DHT22;17437;47.188;8.896;2022-12-29T12:48:57;10.50;99.90
30678;DHT22;17437;47.188;8.896;2022-12-29T12:51:32;10.50;99.90
30678;DHT22;17437;47.188;8.896;2022-12-29T12:54:16;10.50;99.90
30678;DHT22;17437;47.188;8.896;2022-12-29T12:56:56;10.50;99.90
30678;DHT22;17437;47.188;8.896;2022-12-29T12:59:45;10.40;99.90
30678;DHT22;17437;47.188;8.896;2022-12-29T13:02:23;10.40;99.90
30678;DHT22;17437;47.188;8.896;2022-12-29T13:05:06;10.30;99.90
30678;DHT22;17437;47.188;8.896;2022-12-29T13:07:43;10.30;99.90
30678;DHT22;17437;47.188;8.896;2022-12-29T13:10:24;10.20;99.90
30678;DHT22;17437;47.188;8.896;2022-12-29T13:13:00;10.30;99.90
30678;DHT22;17437;47.188;8.896;2022-12-29T13:15:39;10.30;99.90
30678;DHT22;17437;47.188;8.896;2022-12-29T13:18:16;10.30;99.90
30678;DHT22;17437;47.188;8.896;2022-12-29T13:20:52;10.30;99.90
30678;DHT22;17437;47.188;8.896;2022-12-29T13:23:26;10.50;99.90
30678;DHT22;17437;47.188;8.896;2022-12-29T13:26:01;10.50;99.90
30678;DHT22;17437;47.188;8.896;2022-12-29T13:28:35;10.50;99.90
30678;DHT22;17437;47.188;8.896;2022-12-29T13:31:11;10.60;99.90
30678;DHT22;17437;47.188;8.896;2022-12-29T13:33:45;10.50;99.90
30678;DHT22;17437;47.188;8.896;2022-12-29T13:36:24;10.40;99.90
30678;DHT22;17437;47.188;8.896;2022-12-29T13:39:01;10.40;99.90
30678;DHT22;17437;47.188;8.896;2022-12-29T13:41:34;10.50;99.90
30678;DHT22;17437;47.188;8.896;2022-12-29T13:44:09;10.60;99.90
30678;DHT22;17437;47.188;8.896;2022-12-29T13:46:44;10.60;99.90
30678;DHT22;17437;47.188;8.896;2022-12-29T13:49:19;10.60;99.90
30678;DHT22;17437;47.188;8.896;2022-12-29T13:51:52;10.50;99.90
30678;DHT22;17437;47.188;8.896;2022-12-29T13:54:30;10.50;99.90
30678;DHT22;17437;47.188;8.896;2022-12-29T13:57:06;10.40;99.90
30678;DHT22;17437;47.188;8.896;2022-12-29T13:59:43;10.50;99.90
30678;DHT22;17437;47.188;8.896;2022-12-29T14:02:26;10.50;99.90
30678;DHT22;17437;47.188;8.896;2022-12-29T14:05:00;10.70;99.90
30678;DHT22;17437;47.188;8.896;2022-12-29T14:07:36;10.90;99.90
30678;DHT22;17437;47.188;8.896;2022-12-29T14:10:25;10.80;99.90
30678;DHT22;17437;47.188;8.896;2022-12-29T14:13:04;10.70;99.90
30678;DHT22;17437;47.188;8.896;2022-12-29T14:15:38;10.60;99.90
30678;DHT22;17437;47.188;8.896;2022-12-29T14:18:16;10.60;99.90
30678;DHT22;17437;47.188;8.896;2022-12-29T14:20:54;10.40;99.90
30678;DHT22;17437;47.188;8.896;2022-12-29T14:23:38;10.30;99.90
30678;DHT22;17437;47.188;8.896;2022-12-29T14:26:16;10.20;99.90
30678;DHT22;17437;47.188;8.896;2022-12-29T14:28:49;10.10;99.90
30678;DHT22;17437;47.188;8.896;2022-12-29T14:31:36;10.10;99.90
30678;DHT22;17437;47.188;8.896;2022-12-29T14:34:43;10.00;99.90
30678;DHT22;17437;47.188;8.896;2022-12-29T14:37:25;9.80;99.90
30678;DHT22;17437;47.188;8.896;2022-12-29T14:40:04;9.60;99.90
30678;DHT22;17437;47.188;8.896;2022-12-29T14:42:36;9.60;99.90
30678;DHT22;17437;47.188;8.896;2022-12-29T14:45:23;9.40;99.90
30678;DHT22;17437;47.188;8.896;2022-12-29T14:47:55;9.30;99.90
30678;DHT22;17437;47.188;8.896;2022-12-29T14:50:33;9.30;99.90
30678;DHT22;17437;47.188;8.896;2022-12-29T14:53:04;9.30;99.90
30678;DHT22;17437;47.188;8.896;2022-12-29T14:55:40;9.20;99.90
30678;DHT22;17437;47.188;8.896;2022-12-29T14:58:16;9.20;99.90
30678;DHT22;17437;47.188;8.896;2022-12-29T15:00:49;9.20;99.90
30678;DHT22;17437;47.188;8.896;2022-12-29T15:03:23;9.20;99.90
30678;DHT22;17437;47.188;8.896;2022-12-29T15:05:57;9.20;99.90
30678;DHT22;17437;47.188;8.896;2022-12-29T15:08:37;9.20;99.90
30678;DHT22;17437;47.188;8.896;2022-12-29T15:11:11;9.20;99.90
30678;DHT22;17437;47.188;8.896;2022-12-29T15:13:44;9.20;99.90
30678;DHT22;17437;47.188;8.896;2022-12-29T15:16:23;9.10;99.90
30678;DHT22;17437;47.188;8.896;2022-12-29T15:18:55;9.20;99.90
30678;DHT22;17437;47.188;8.896;2022-12-29T15:21:30;9.10;99.90
30678;DHT22;17437;47.188;8.896;2022-12-29T15:24:01;9.10;99.90
30678;DHT22;17437;47.188;8.896;2022-12-29T15:26:39;9.10;99.90
30678;DHT22;17437;47.188;8.896;2022-12-29T15:29:31;9.00;99.90
30678;DHT22;17437;47.188;8.896;2022-12-29T15:32:16;8.90;99.90
30678;DHT22;17437;47.188;8.896;2022-12-29T15:34:50;8.80;99.90
30678;DHT22;17437;47.188;8.896;2022-12-29T15:37:24;8.70;99.90
30678;DHT22;17437;47.188;8.896;2022-12-29T15:39:56;8.70;99.90
30678;DHT22;17437;47.188;8.896;2022-12-29T15:42:38;8.60;99.90
30678;DHT22;17437;47.188;8.896;2022-12-29T15:45:12;8.60;99.90
30678;DHT22;17437;47.188;8.896;2022-12-29T15:47:45;8.60;99.90
30678;DHT22;17437;47.188;8.896;2022-12-29T15:50:23;8.60;99.90
30678;DHT22;17437;47.188;8.896;2022-12-29T15:52:55;8.50;99.90
30678;DHT22;17437;47.188;8.896;2022-12-29T15:55:30;8.50;99.90
30678;DHT22;17437;47.188;8.896;2022-12-29T15:58:05;8.50;99.90
30678;DHT22;17437;47.188;8.896;2022-12-29T16:00:37;8.50;99.90
30678;DHT22;17437;47.188;8.896;2022-12-29T16:03:13;8.50;99.90
30678;DHT22;17437;47.188;8.896;2022-12-29T16:05:53;8.40;99.90
30678;DHT22;17437;47.188;8.896;2022-12-29T16:08:33;8.40;99.90
30678;DHT22;17437;47.188;8.896;2022-12-29T16:11:16;8.40;99.90
30678;DHT22;17437;47.188;8.896;2022-12-29T16:13:41;8.30;99.90
30678;DHT22;17437;47.188;8.896;2022-12-29T16:16:16;8.30;99.90
30678;DHT22;17437;47.188;8.896;2022-12-29T16:18:49;8.30;99.90
30678;DHT22;17437;47.188;8.896;2022-12-29T16:21:26;8.30;99.90
30678;DHT22;17437;47.188;8.896;2022-12-29T16:24:00;8.20;99.90
30678;DHT22;17437;47.188;8.896;2022-12-29T16:26:32;8.20;99.90
30678;DHT22;17437;47.188;8.896;2022-12-29T16:29:05;8.10;99.90
30678;DHT22;17437;47.188;8.896;2022-12-29T16:31:47;8.10;99.90
30678;DHT22;17437;47.188;8.896;2022-12-29T16:34:25;8.00;99.90
30678;DHT22;17437;47.188;8.896;2022-12-29T16:36:57;8.00;99.90
30678;DHT22;17437;47.188;8.896;2022-12-29T16:39:34;8.00;99.90
30678;DHT22;17437;47.188;8.896;2022-12-29T16:48:28;7.90;99.90
30678;DHT22;17437;47.188;8.896;2022-12-29T16:51:06;7.90;99.90